CZFM/ZFM METAR and TAF weather

Enter ICAO airport designator
Station Type Date Time Source
CZFM METAR 2019/08/16 23:00 UTC NOAA

CZFM 162300Z 34005KT 300V010 35SM BKN027 OVC048 08/06 A3001 RMK SC5SC3 CIG RAG /R1.6/AFT 1300Z/LAST OBS/NXT 171300Z SLP165


Station Type Date Time Source
CZFM Decoded METAR 2019/08/16 23:00 UTC NOAA

Station name not available
Aug 16, 2019 - 07:00 PM EDT / 2019.08.16 2300 UTC
Wind: from the NNW (340 degrees) at 6 MPH (5 KT) (direction variable):0
Visibility: 35 mile(s):0
Sky conditions: overcast
Temperature: 46 F (8 C)
Dew Point: 42 F (6 C)
Relative Humidity: 87%
Pressure (altimeter): 30.01 in. Hg (1016 hPa)
ob: CZFM 162300Z 34005KT 300V010 35SM BKN027 OVC048 08/06 A3001 RMK SC5SC3 CIG RAG /R1.6/AFT 1300Z/LAST OBS/NXT 171300Z SLP165
cycle: 23

Station Type Date Time Source
CZFM TAF 2019/08/16 19:00 UTC NOAA

TAF CZFM 161838Z 1619/1623 34005KT P6SM SCT006 BKN050
TEMPO 1619/1621 P6SM -RA BKN006 OVC050
FM162100 35005KT P6SM SCT020 BKN050
TEMPO 1621/1623 P6SM -RA BKN020 OVC050
RMK NXT FCST WILL BE ISSUED AT 171445Z

Example: see airport list